sensor_id;sensor_type;location;lat;lon;timestamp;temperature;humidity
41838;DHT22;27511;52.042;5.178;2023-04-06T00:01:49;8.20;99.90
41838;DHT22;27511;52.042;5.178;2023-04-06T00:04:15;8.20;99.90
41838;DHT22;27511;52.042;5.178;2023-04-06T00:06:41;8.10;99.90
41838;DHT22;27511;52.042;5.178;2023-04-06T00:09:06;8.00;99.90
41838;DHT22;27511;52.042;5.178;2023-04-06T00:11:32;8.00;99.90
41838;DHT22;27511;52.042;5.178;2023-04-06T00:13:57;8.00;99.90
41838;DHT22;27511;52.042;5.178;2023-04-06T00:16:23;8.00;99.90
41838;DHT22;27511;52.042;5.178;2023-04-06T00:18:48;8.00;99.90
41838;DHT22;27511;52.042;5.178;2023-04-06T00:21:14;8.00;99.90
41838;DHT22;27511;52.042;5.178;2023-04-06T00:23:40;8.00;99.90
41838;DHT22;27511;52.042;5.178;2023-04-06T00:26:05;8.00;99.90
41838;DHT22;27511;52.042;5.178;2023-04-06T00:28:31;7.90;99.90
41838;DHT22;27511;52.042;5.178;2023-04-06T00:30:56;7.90;99.90
41838;DHT22;27511;52.042;5.178;2023-04-06T00:33:22;7.90;99.90
41838;DHT22;27511;52.042;5.178;2023-04-06T00:35:48;7.90;99.90
41838;DHT22;27511;52.042;5.178;2023-04-06T00:38:14;7.90;99.90
41838;DHT22;27511;52.042;5.178;2023-04-06T00:40:40;7.90;99.90
41838;DHT22;27511;52.042;5.178;2023-04-06T00:43:06;7.90;99.90
41838;DHT22;27511;52.042;5.178;2023-04-06T00:45:32;7.90;99.90
41838;DHT22;27511;52.042;5.178;2023-04-06T00:47:58;7.90;99.90
41838;DHT22;27511;52.042;5.178;2023-04-06T00:50:23;7.80;99.90
41838;DHT22;27511;52.042;5.178;2023-04-06T00:52:49;7.90;99.90
41838;DHT22;27511;52.042;5.178;2023-04-06T00:55:14;7.90;99.90
41838;DHT22;27511;52.042;5.178;2023-04-06T00:57:40;7.80;99.90
41838;DHT22;27511;52.042;5.178;2023-04-06T01:00:05;7.90;99.90
41838;DHT22;27511;52.042;5.178;2023-04-06T01:02:31;7.90;99.90
41838;DHT22;27511;52.042;5.178;2023-04-06T01:04:57;8.00;99.90
41838;DHT22;27511;52.042;5.178;2023-04-06T01:07:22;8.00;99.90
41838;DHT22;27511;52.042;5.178;2023-04-06T01:09:48;8.00;99.90
41838;DHT22;27511;52.042;5.178;2023-04-06T01:12:13;8.00;99.90
41838;DHT22;27511;52.042;5.178;2023-04-06T01:14:39;8.00;99.90
41838;DHT22;27511;52.042;5.178;2023-04-06T01:17:04;8.00;99.90
41838;DHT22;27511;52.042;5.178;2023-04-06T01:19:30;8.10;99.90
41838;DHT22;27511;52.042;5.178;2023-04-06T01:21:55;8.00;99.90
41838;DHT22;27511;52.042;5.178;2023-04-06T01:24:21;8.10;99.90
41838;DHT22;27511;52.042;5.178;2023-04-06T01:26:47;8.10;99.90
41838;DHT22;27511;52.042;5.178;2023-04-06T01:29:12;8.20;99.90
41838;DHT22;27511;52.042;5.178;2023-04-06T01:31:38;8.10;99.90
41838;DHT22;27511;52.042;5.178;2023-04-06T01:34:04;8.10;99.90
41838;DHT22;27511;52.042;5.178;2023-04-06T01:36:29;8.20;99.90
41838;DHT22;27511;52.042;5.178;2023-04-06T01:38:55;8.20;99.90
41838;DHT22;27511;52.042;5.178;2023-04-06T01:41:20;8.30;99.90
41838;DHT22;27511;52.042;5.178;2023-04-06T01:43:47;8.30;99.90
41838;DHT22;27511;52.042;5.178;2023-04-06T01:46:12;8.40;99.90
41838;DHT22;27511;52.042;5.178;2023-04-06T01:48:38;8.40;99.90
41838;DHT22;27511;52.042;5.178;2023-04-06T01:51:03;8.40;99.90
41838;DHT22;27511;52.042;5.178;2023-04-06T01:53:29;8.40;99.90
41838;DHT22;27511;52.042;5.178;2023-04-06T01:55:54;8.40;99.90
41838;DHT22;27511;52.042;5.178;2023-04-06T01:58:20;8.50;99.90
41838;DHT22;27511;52.042;5.178;2023-04-06T02:00:45;8.50;99.90
41838;DHT22;27511;52.042;5.178;2023-04-06T02:03:11;8.40;99.90
41838;DHT22;27511;52.042;5.178;2023-04-06T02:05:36;8.50;99.90
41838;DHT22;27511;52.042;5.178;2023-04-06T02:08:04;8.50;99.90
41838;DHT22;27511;52.042;5.178;2023-04-06T02:10:30;8.60;99.90
41838;DHT22;27511;52.042;5.178;2023-04-06T02:12:55;8.60;99.90
41838;DHT22;27511;52.042;5.178;2023-04-06T02:15:21;8.50;99.90
41838;DHT22;27511;52.042;5.178;2023-04-06T02:17:46;8.50;99.90
41838;DHT22;27511;52.042;5.178;2023-04-06T02:20:11;8.50;99.90
41838;DHT22;27511;52.042;5.178;2023-04-06T02:22:37;8.60;99.90
41838;DHT22;27511;52.042;5.178;2023-04-06T02:25:03;8.50;99.90
41838;DHT22;27511;52.042;5.178;2023-04-06T02:27:28;8.40;99.90
41838;DHT22;27511;52.042;5.178;2023-04-06T02:29:54;8.50;99.90
41838;DHT22;27511;52.042;5.178;2023-04-06T02:32:19;8.40;99.90
41838;DHT22;27511;52.042;5.178;2023-04-06T02:34:45;8.40;99.90
41838;DHT22;27511;52.042;5.178;2023-04-06T02:37:10;8.50;99.90
41838;DHT22;27511;52.042;5.178;2023-04-06T02:39:36;8.50;99.90
41838;DHT22;27511;52.042;5.178;2023-04-06T02:42:01;8.50;99.90
41838;DHT22;27511;52.042;5.178;2023-04-06T02:44:27;8.50;99.90
41838;DHT22;27511;52.042;5.178;2023-04-06T02:46:52;8.50;99.90
41838;DHT22;27511;52.042;5.178;2023-04-06T02:49:17;8.50;99.90
41838;DHT22;27511;52.042;5.178;2023-04-06T02:51:43;8.50;99.90
41838;DHT22;27511;52.042;5.178;2023-04-06T02:54:08;8.50;99.90
41838;DHT22;27511;52.042;5.178;2023-04-06T02:56:34;8.50;99.90
41838;DHT22;27511;52.042;5.178;2023-04-06T02:58:59;8.50;99.90
41838;DHT22;27511;52.042;5.178;2023-04-06T03:01:25;8.50;99.90
41838;DHT22;27511;52.042;5.178;2023-04-06T03:03:51;8.50;99.90
41838;DHT22;27511;52.042;5.178;2023-04-06T03:06:16;8.60;99.90
41838;DHT22;27511;52.042;5.178;2023-04-06T03:08:42;8.50;99.90
41838;DHT22;27511;52.042;5.178;2023-04-06T03:11:07;8.60;99.90
41838;DHT22;27511;52.042;5.178;2023-04-06T03:13:33;8.50;99.90
41838;DHT22;27511;52.042;5.178;2023-04-06T03:15:58;8.50;99.90
41838;DHT22;27511;52.042;5.178;2023-04-06T03:18:24;8.50;99.90
41838;DHT22;27511;52.042;5.178;2023-04-06T03:20:50;8.40;99.90
41838;DHT22;27511;52.042;5.178;2023-04-06T03:23:16;8.40;99.90
41838;DHT22;27511;52.042;5.178;2023-04-06T03:25:42;8.40;99.90
41838;DHT22;27511;52.042;5.178;2023-04-06T03:28:07;8.40;99.90
41838;DHT22;27511;52.042;5.178;2023-04-06T03:30:33;8.40;99.90
41838;DHT22;27511;52.042;5.178;2023-04-06T03:32:58;8.40;99.90
41838;DHT22;27511;52.042;5.178;2023-04-06T03:35:24;8.40;99.90
41838;DHT22;27511;52.042;5.178;2023-04-06T03:37:50;8.40;99.90
41838;DHT22;27511;52.042;5.178;2023-04-06T03:40:15;8.40;99.90
41838;DHT22;27511;52.042;5.178;2023-04-06T03:42:41;8.40;99.90
41838;DHT22;27511;52.042;5.178;2023-04-06T03:45:06;8.40;99.90
41838;DHT22;27511;52.042;5.178;2023-04-06T03:47:32;8.40;99.90
41838;DHT22;27511;52.042;5.178;2023-04-06T03:49:57;8.40;99.90
41838;DHT22;27511;52.042;5.178;2023-04-06T03:52:23;8.50;99.90
41838;DHT22;27511;52.042;5.178;2023-04-06T03:54:48;8.40;99.90
41838;DHT22;27511;52.042;5.178;2023-04-06T03:57:14;8.40;99.90
41838;DHT22;27511;52.042;5.178;2023-04-06T03:59:40;8.40;99.90
41838;DHT22;27511;52.042;5.178;2023-04-06T04:02:05;8.40;99.90
41838;DHT22;27511;52.042;5.178;2023-04-06T04:04:30;8.50;99.90
41838;DHT22;27511;52.042;5.178;2023-04-06T04:06:56;8.50;99.90
41838;DHT22;27511;52.042;5.178;2023-04-06T04:09:21;8.60;99.90
41838;DHT22;27511;52.042;5.178;2023-04-06T04:11:47;8.50;99.90
41838;DHT22;27511;52.042;5.178;2023-04-06T04:14:12;8.50;99.90
41838;DHT22;27511;52.042;5.178;2023-04-06T04:16:38;8.40;99.90
41838;DHT22;27511;52.042;5.178;2023-04-06T04:19:04;8.40;99.90
41838;DHT22;27511;52.042;5.178;2023-04-06T04:21:31;8.50;99.90
41838;DHT22;27511;52.042;5.178;2023-04-06T04:23:56;8.50;99.90
41838;DHT22;27511;52.042;5.178;2023-04-06T04:26:22;8.50;99.90
41838;DHT22;27511;52.042;5.178;2023-04-06T04:28:47;8.50;99.90
41838;DHT22;27511;52.042;5.178;2023-04-06T04:31:13;8.50;99.90
41838;DHT22;27511;52.042;5.178;2023-04-06T04:33:38;8.50;99.90
41838;DHT22;27511;52.042;5.178;2023-04-06T04:36:04;8.60;99.90
41838;DHT22;27511;52.042;5.178;2023-04-06T04:38:30;8.50;99.90
41838;DHT22;27511;52.042;5.178;2023-04-06T04:40:55;8.40;99.90
41838;DHT22;27511;52.042;5.178;2023-04-06T04:43:20;8.40;99.90
41838;DHT22;27511;52.042;5.178;2023-04-06T04:45:46;8.40;99.90
41838;DHT22;27511;52.042;5.178;2023-04-06T04:48:11;8.40;99.90
41838;DHT22;27511;52.042;5.178;2023-04-06T04:50:37;8.30;99.90
41838;DHT22;27511;52.042;5.178;2023-04-06T04:53:02;8.40;99.90
41838;DHT22;27511;52.042;5.178;2023-04-06T04:55:31;8.40;99.90
41838;DHT22;27511;52.042;5.178;2023-04-06T04:57:56;8.40;99.90
41838;DHT22;27511;52.042;5.178;2023-04-06T05:00:22;8.40;99.90
41838;DHT22;27511;52.042;5.178;2023-04-06T05:02:47;8.50;99.90
41838;DHT22;27511;52.042;5.178;2023-04-06T05:05:13;8.60;99.90
41838;DHT22;27511;52.042;5.178;2023-04-06T05:07:38;8.60;99.90
41838;DHT22;27511;52.042;5.178;2023-04-06T05:10:04;8.50;99.90
41838;DHT22;27511;52.042;5.178;2023-04-06T05:12:30;8.40;99.90
41838;DHT22;27511;52.042;5.178;2023-04-06T05:14:55;8.40;99.90
41838;DHT22;27511;52.042;5.178;2023-04-06T05:17:21;8.50;99.90
41838;DHT22;27511;52.042;5.178;2023-04-06T05:19:46;8.50;99.90
41838;DHT22;27511;52.042;5.178;2023-04-06T05:22:12;8.50;99.90
41838;DHT22;27511;52.042;5.178;2023-04-06T05:24:39;8.50;99.90
41838;DHT22;27511;52.042;5.178;2023-04-06T05:27:05;8.50;99.90
41838;DHT22;27511;52.042;5.178;2023-04-06T05:29:30;8.50;99.90
41838;DHT22;27511;52.042;5.178;2023-04-06T05:31:56;8.50;99.90
41838;DHT22;27511;52.042;5.178;2023-04-06T05:34:21;8.60;99.90
41838;DHT22;27511;52.042;5.178;2023-04-06T05:36:47;8.60;99.90
41838;DHT22;27511;52.042;5.178;2023-04-06T05:39:12;8.50;99.90
41838;DHT22;27511;52.042;5.178;2023-04-06T05:41:38;8.50;99.90
41838;DHT22;27511;52.042;5.178;2023-04-06T05:44:03;8.50;99.90
41838;DHT22;27511;52.042;5.178;2023-04-06T05:46:29;8.50;99.90
41838;DHT22;27511;52.042;5.178;2023-04-06T05:48:54;8.60;99.90
41838;DHT22;27511;52.042;5.178;2023-04-06T05:51:20;8.50;99.90
41838;DHT22;27511;52.042;5.178;2023-04-06T05:53:46;8.60;99.90
41838;DHT22;27511;52.042;5.178;2023-04-06T05:56:11;8.60;99.90
41838;DHT22;27511;52.042;5.178;2023-04-06T05:58:37;8.70;99.90
41838;DHT22;27511;52.042;5.178;2023-04-06T06:01:03;8.70;99.90
41838;DHT22;27511;52.042;5.178;2023-04-06T06:03:29;8.70;99.90
41838;DHT22;27511;52.042;5.178;2023-04-06T06:06:01;8.80;99.90
41838;DHT22;27511;52.042;5.178;2023-04-06T06:08:27;8.80;99.90
41838;DHT22;27511;52.042;5.178;2023-04-06T06:10:53;8.90;99.90
41838;DHT22;27511;52.042;5.178;2023-04-06T06:13:18;9.00;99.90
41838;DHT22;27511;52.042;5.178;2023-04-06T06:15:44;9.00;99.90
41838;DHT22;27511;52.042;5.178;2023-04-06T06:18:09;9.00;99.90
41838;DHT22;27511;52.042;5.178;2023-04-06T06:20:35;9.10;99.90
41838;DHT22;27511;52.042;5.178;2023-04-06T06:23:01;9.10;99.90
41838;DHT22;27511;52.042;5.178;2023-04-06T06:25:26;9.20;99.90
41838;DHT22;27511;52.042;5.178;2023-04-06T06:27:52;9.20;99.90
41838;DHT22;27511;52.042;5.178;2023-04-06T06:30:17;9.20;99.90
41838;DHT22;27511;52.042;5.178;2023-04-06T06:32:43;9.20;99.90
41838;DHT22;27511;52.042;5.178;2023-04-06T06:35:08;9.20;99.90
41838;DHT22;27511;52.042;5.178;2023-04-06T06:37:34;9.30;99.90
41838;DHT22;27511;52.042;5.178;2023-04-06T06:39:59;9.20;99.90
41838;DHT22;27511;52.042;5.178;2023-04-06T06:42:25;9.20;99.90
41838;DHT22;27511;52.042;5.178;2023-04-06T06:44:50;9.30;99.90
41838;DHT22;27511;52.042;5.178;2023-04-06T06:47:16;9.30;99.90
41838;DHT22;27511;52.042;5.178;2023-04-06T06:49:41;9.20;99.90
41838;DHT22;27511;52.042;5.178;2023-04-06T06:52:07;9.30;99.90
41838;DHT22;27511;52.042;5.178;2023-04-06T06:54:32;9.40;99.90
41838;DHT22;27511;52.042;5.178;2023-04-06T06:56:58;9.50;99.90
41838;DHT22;27511;52.042;5.178;2023-04-06T06:59:23;9.60;99.90
41838;DHT22;27511;52.042;5.178;2023-04-06T07:01:49;9.60;99.90
41838;DHT22;27511;52.042;5.178;2023-04-06T07:04:15;9.70;99.90
41838;DHT22;27511;52.042;5.178;2023-04-06T07:06:40;9.80;99.90
41838;DHT22;27511;52.042;5.178;2023-04-06T07:09:06;9.90;99.90
41838;DHT22;27511;52.042;5.178;2023-04-06T07:11:31;9.90;99.90
41838;DHT22;27511;52.042;5.178;2023-04-06T07:13:57;9.80;99.90
41838;DHT22;27511;52.042;5.178;2023-04-06T07:16:22;9.90;99.90
41838;DHT22;27511;52.042;5.178;2023-04-06T07:18:47;9.80;99.90
41838;DHT22;27511;52.042;5.178;2023-04-06T07:21:13;9.90;99.90
41838;DHT22;27511;52.042;5.178;2023-04-06T07:23:38;9.80;99.90
41838;DHT22;27511;52.042;5.178;2023-04-06T07:26:04;9.90;99.90
41838;DHT22;27511;52.042;5.178;2023-04-06T07:28:29;9.90;99.90
41838;DHT22;27511;52.042;5.178;2023-04-06T07:30:55;10.00;99.90
41838;DHT22;27511;52.042;5.178;2023-04-06T07:33:20;10.10;99.90
41838;DHT22;27511;52.042;5.178;2023-04-06T07:35:46;10.10;99.90
41838;DHT22;27511;52.042;5.178;2023-04-06T07:38:11;10.20;99.90
41838;DHT22;27511;52.042;5.178;2023-04-06T07:40:37;10.30;99.90
41838;DHT22;27511;52.042;5.178;2023-04-06T07:43:02;10.20;99.90
41838;DHT22;27511;52.042;5.178;2023-04-06T07:45:28;10.30;99.90
41838;DHT22;27511;52.042;5.178;2023-04-06T07:47:54;10.20;99.90
41838;DHT22;27511;52.042;5.178;2023-04-06T07:50:19;10.30;99.90
41838;DHT22;27511;52.042;5.178;2023-04-06T07:52:45;10.50;99.90
41838;DHT22;27511;52.042;5.178;2023-04-06T07:55:10;10.60;99.90
41838;DHT22;27511;52.042;5.178;2023-04-06T07:57:36;10.50;99.90
41838;DHT22;27511;52.042;5.178;2023-04-06T08:00:01;10.70;99.90
41838;DHT22;27511;52.042;5.178;2023-04-06T08:02:29;10.60;99.90
41838;DHT22;27511;52.042;5.178;2023-04-06T08:04:54;10.80;99.90
41838;DHT22;27511;52.042;5.178;2023-04-06T08:07:20;10.80;99.90
41838;DHT22;27511;52.042;5.178;2023-04-06T08:09:45;10.90;99.90
41838;DHT22;27511;52.042;5.178;2023-04-06T08:12:11;10.80;99.90
41838;DHT22;27511;52.042;5.178;2023-04-06T08:14:36;10.90;99.90
41838;DHT22;27511;52.042;5.178;2023-04-06T08:17:02;11.00;99.90
41838;DHT22;27511;52.042;5.178;2023-04-06T08:19:27;11.00;99.90
41838;DHT22;27511;52.042;5.178;2023-04-06T08:21:53;10.90;99.90
41838;DHT22;27511;52.042;5.178;2023-04-06T08:24:18;11.00;99.90
41838;DHT22;27511;52.042;5.178;2023-04-06T08:26:44;11.00;99.90
41838;DHT22;27511;52.042;5.178;2023-04-06T08:29:09;10.90;99.90
41838;DHT22;27511;52.042;5.178;2023-04-06T08:31:35;10.90;99.90
41838;DHT22;27511;52.042;5.178;2023-04-06T08:34:01;11.10;99.90
41838;DHT22;27511;52.042;5.178;2023-04-06T08:36:27;11.20;99.90
41838;DHT22;27511;52.042;5.178;2023-04-06T08:38:52;11.20;99.90
41838;DHT22;27511;52.042;5.178;2023-04-06T08:41:19;11.10;99.90
41838;DHT22;27511;52.042;5.178;2023-04-06T08:46:19;11.20;99.90
41838;DHT22;27511;52.042;5.178;2023-04-06T08:48:44;11.30;99.90
41838;DHT22;27511;52.042;5.178;2023-04-06T08:51:10;11.40;99.90
41838;DHT22;27511;52.042;5.178;2023-04-06T08:53:36;11.40;99.90
41838;DHT22;27511;52.042;5.178;2023-04-06T08:56:02;11.50;99.90
41838;DHT22;27511;52.042;5.178;2023-04-06T08:58:33;11.30;99.90
41838;DHT22;27511;52.042;5.178;2023-04-06T09:00:59;11.30;99.90
41838;DHT22;27511;52.042;5.178;2023-04-06T09:03:25;11.40;99.90
41838;DHT22;27511;52.042;5.178;2023-04-06T09:05:51;11.50;99.90
41838;DHT22;27511;52.042;5.178;2023-04-06T09:08:16;11.40;99.90
41838;DHT22;27511;52.042;5.178;2023-04-06T09:10:42;11.40;99.90
41838;DHT22;27511;52.042;5.178;2023-04-06T09:13:08;11.50;99.90
41838;DHT22;27511;52.042;5.178;2023-04-06T09:15:34;11.60;99.90
41838;DHT22;27511;52.042;5.178;2023-04-06T09:18:00;11.70;99.90
41838;DHT22;27511;52.042;5.178;2023-04-06T09:20:25;11.70;99.90
41838;DHT22;27511;52.042;5.178;2023-04-06T09:22:51;11.60;99.90
41838;DHT22;27511;52.042;5.178;2023-04-06T09:25:21;11.60;99.90
41838;DHT22;27511;52.042;5.178;2023-04-06T09:28:03;11.80;99.90
41838;DHT22;27511;52.042;5.178;2023-04-06T09:30:29;11.80;99.90
41838;DHT22;27511;52.042;5.178;2023-04-06T09:32:55;11.90;99.90
41838;DHT22;27511;52.042;5.178;2023-04-06T09:35:21;11.80;99.90
41838;DHT22;27511;52.042;5.178;2023-04-06T09:37:47;11.90;99.90
41838;DHT22;27511;52.042;5.178;2023-04-06T09:40:14;11.90;99.90
41838;DHT22;27511;52.042;5.178;2023-04-06T09:42:42;11.70;99.90
41838;DHT22;27511;52.042;5.178;2023-04-06T09:45:10;11.70;99.90
41838;DHT22;27511;52.042;5.178;2023-04-06T09:47:36;11.70;99.90
41838;DHT22;27511;52.042;5.178;2023-04-06T09:50:02;11.80;99.90
41838;DHT22;27511;52.042;5.178;2023-04-06T09:52:37;11.80;99.90
41838;DHT22;27511;52.042;5.178;2023-04-06T09:55:03;12.00;99.90
41838;DHT22;27511;52.042;5.178;2023-04-06T09:57:34;12.00;99.90
41838;DHT22;27511;52.042;5.178;2023-04-06T10:00:06;12.20;99.90
41838;DHT22;27511;52.042;5.178;2023-04-06T10:07:46;12.10;99.90
41838;DHT22;27511;52.042;5.178;2023-04-06T10:10:12;12.20;99.90
41838;DHT22;27511;52.042;5.178;2023-04-06T10:12:39;12.10;99.90
41838;DHT22;27511;52.042;5.178;2023-04-06T10:15:05;12.20;99.90
41838;DHT22;27511;52.042;5.178;2023-04-06T10:17:31;12.20;99.90
41838;DHT22;27511;52.042;5.178;2023-04-06T10:20:02;12.10;99.90
41838;DHT22;27511;52.042;5.178;2023-04-06T10:22:32;12.30;99.90
41838;DHT22;27511;52.042;5.178;2023-04-06T10:24:58;12.10;99.90
41838;DHT22;27511;52.042;5.178;2023-04-06T10:27:27;12.10;99.90
41838;DHT22;27511;52.042;5.178;2023-04-06T10:29:53;12.10;99.90
41838;DHT22;27511;52.042;5.178;2023-04-06T10:32:18;12.20;99.90
41838;DHT22;27511;52.042;5.178;2023-04-06T10:34:43;12.10;99.90
41838;DHT22;27511;52.042;5.178;2023-04-06T10:37:13;12.00;99.90
41838;DHT22;27511;52.042;5.178;2023-04-06T10:40:12;12.00;99.90
41838;DHT22;27511;52.042;5.178;2023-04-06T10:42:37;11.90;99.90
41838;DHT22;27511;52.042;5.178;2023-04-06T10:45:05;11.70;99.90
41838;DHT22;27511;52.042;5.178;2023-04-06T10:47:38;11.60;99.90
41838;DHT22;27511;52.042;5.178;2023-04-06T10:50:04;11.70;99.90
41838;DHT22;27511;52.042;5.178;2023-04-06T10:52:29;11.70;99.90
41838;DHT22;27511;52.042;5.178;2023-04-06T10:54:55;11.80;99.90
41838;DHT22;27511;52.042;5.178;2023-04-06T10:57:28;11.80;99.90
41838;DHT22;27511;52.042;5.178;2023-04-06T10:59:54;11.70;99.90
41838;DHT22;27511;52.042;5.178;2023-04-06T11:02:20;11.50;99.90
41838;DHT22;27511;52.042;5.178;2023-04-06T11:04:55;11.50;99.90
41838;DHT22;27511;52.042;5.178;2023-04-06T11:07:25;11.50;99.90
41838;DHT22;27511;52.042;5.178;2023-04-06T11:09:51;11.50;99.90
41838;DHT22;27511;52.042;5.178;2023-04-06T11:12:26;11.50;99.90
41838;DHT22;27511;52.042;5.178;2023-04-06T11:14:53;11.70;99.90
41838;DHT22;27511;52.042;5.178;2023-04-06T11:17:25;11.50;99.90
41838;DHT22;27511;52.042;5.178;2023-04-06T11:19:50;11.40;99.90
41838;DHT22;27511;52.042;5.178;2023-04-06T11:22:16;11.40;99.90
41838;DHT22;27511;52.042;5.178;2023-04-06T11:24:41;11.40;99.90
41838;DHT22;27511;52.042;5.178;2023-04-06T11:27:07;11.50;99.90
41838;DHT22;27511;52.042;5.178;2023-04-06T11:29:32;11.60;99.90
41838;DHT22;27511;52.042;5.178;2023-04-06T11:32:02;11.60;99.90
41838;DHT22;27511;52.042;5.178;2023-04-06T11:34:28;11.40;99.90
41838;DHT22;27511;52.042;5.178;2023-04-06T11:36:57;11.50;99.90
41838;DHT22;27511;52.042;5.178;2023-04-06T11:39:23;11.50;99.90
41838;DHT22;27511;52.042;5.178;2023-04-06T11:41:49;11.40;99.90
41838;DHT22;27511;52.042;5.178;2023-04-06T11:44:26;11.30;99.90
41838;DHT22;27511;52.042;5.178;2023-04-06T11:46:52;11.50;99.90
41838;DHT22;27511;52.042;5.178;2023-04-06T11:49:18;11.40;99.90
41838;DHT22;27511;52.042;5.178;2023-04-06T11:51:43;11.50;99.90
41838;DHT22;27511;52.042;5.178;2023-04-06T11:54:11;11.60;99.90
41838;DHT22;27511;52.042;5.178;2023-04-06T11:56:36;11.60;99.90
41838;DHT22;27511;52.042;5.178;2023-04-06T11:59:02;11.50;99.90
41838;DHT22;27511;52.042;5.178;2023-04-06T12:01:27;11.30;99.90
41838;DHT22;27511;52.042;5.178;2023-04-06T12:03:53;11.40;99.90
41838;DHT22;27511;52.042;5.178;2023-04-06T12:06:19;11.40;99.90
41838;DHT22;27511;52.042;5.178;2023-04-06T12:08:45;11.70;99.90
41838;DHT22;27511;52.042;5.178;2023-04-06T12:11:10;11.60;99.90
41838;DHT22;27511;52.042;5.178;2023-04-06T12:13:36;11.50;99.90
41838;DHT22;27511;52.042;5.178;2023-04-06T12:16:01;11.60;99.90
41838;DHT22;27511;52.042;5.178;2023-04-06T12:18:27;11.70;99.90
41838;DHT22;27511;52.042;5.178;2023-04-06T12:20:52;11.60;99.90
41838;DHT22;27511;52.042;5.178;2023-04-06T12:23:21;11.60;99.90
41838;DHT22;27511;52.042;5.178;2023-04-06T12:25:46;11.60;99.90
41838;DHT22;27511;52.042;5.178;2023-04-06T12:28:12;11.40;99.90
41838;DHT22;27511;52.042;5.178;2023-04-06T12:30:38;11.40;99.90
41838;DHT22;27511;52.042;5.178;2023-04-06T12:33:03;11.60;99.90
41838;DHT22;27511;52.042;5.178;2023-04-06T12:35:32;11.70;99.90
41838;DHT22;27511;52.042;5.178;2023-04-06T12:37:58;11.70;99.90
41838;DHT22;27511;52.042;5.178;2023-04-06T12:40:23;11.60;99.90
41838;DHT22;27511;52.042;5.178;2023-04-06T12:42:49;11.50;99.90
41838;DHT22;27511;52.042;5.178;2023-04-06T12:45:14;11.40;99.90
41838;DHT22;27511;52.042;5.178;2023-04-06T12:47:40;11.50;99.90
41838;DHT22;27511;52.042;5.178;2023-04-06T12:50:06;11.40;99.90
41838;DHT22;27511;52.042;5.178;2023-04-06T12:52:31;11.40;99.90
41838;DHT22;27511;52.042;5.178;2023-04-06T12:55:00;11.40;99.90
41838;DHT22;27511;52.042;5.178;2023-04-06T12:57:26;11.50;99.90
41838;DHT22;27511;52.042;5.178;2023-04-06T12:59:51;11.60;99.90
41838;DHT22;27511;52.042;5.178;2023-04-06T13:02:18;11.50;99.90
41838;DHT22;27511;52.042;5.178;2023-04-06T13:04:45;11.40;99.90
41838;DHT22;27511;52.042;5.178;2023-04-06T13:07:10;11.50;99.90
41838;DHT22;27511;52.042;5.178;2023-04-06T13:09:36;11.50;99.90
41838;DHT22;27511;52.042;5.178;2023-04-06T13:12:01;11.60;99.90
41838;DHT22;27511;52.042;5.178;2023-04-06T13:14:27;11.40;99.90
41838;DHT22;27511;52.042;5.178;2023-04-06T13:16:52;11.60;99.90
41838;DHT22;27511;52.042;5.178;2023-04-06T13:19:18;11.60;99.90
41838;DHT22;27511;52.042;5.178;2023-04-06T13:21:43;11.20;99.90
41838;DHT22;27511;52.042;5.178;2023-04-06T13:24:09;11.10;99.90
41838;DHT22;27511;52.042;5.178;2023-04-06T13:26:34;11.10;99.90
41838;DHT22;27511;52.042;5.178;2023-04-06T13:29:01;11.20;99.90
41838;DHT22;27511;52.042;5.178;2023-04-06T13:31:28;11.20;99.90
41838;DHT22;27511;52.042;5.178;2023-04-06T13:33:53;11.20;99.90
41838;DHT22;27511;52.042;5.178;2023-04-06T13:36:19;11.20;99.90
41838;DHT22;27511;52.042;5.178;2023-04-06T13:38:44;11.10;99.90
41838;DHT22;27511;52.042;5.178;2023-04-06T13:41:17;11.10;99.90
41838;DHT22;27511;52.042;5.178;2023-04-06T13:43:42;11.10;99.90
41838;DHT22;27511;52.042;5.178;2023-04-06T13:46:08;11.20;99.90
41838;DHT22;27511;52.042;5.178;2023-04-06T13:48:33;11.40;99.90
41838;DHT22;27511;52.042;5.178;2023-04-06T13:51:07;11.40;99.90
41838;DHT22;27511;52.042;5.178;2023-04-06T13:53:33;11.20;99.90
41838;DHT22;27511;52.042;5.178;2023-04-06T13:55:58;11.40;99.90
41838;DHT22;27511;52.042;5.178;2023-04-06T13:58:24;11.30;99.90
41838;DHT22;27511;52.042;5.178;2023-04-06T14:00:49;11.40;99.90
41838;DHT22;27511;52.042;5.178;2023-04-06T14:03:15;11.50;99.90
41838;DHT22;27511;52.042;5.178;2023-04-06T14:05:41;11.40;99.90
41838;DHT22;27511;52.042;5.178;2023-04-06T14:08:06;11.40;99.90
41838;DHT22;27511;52.042;5.178;2023-04-06T14:10:36;11.30;99.90
41838;DHT22;27511;52.042;5.178;2023-04-06T14:13:01;11.40;99.90
41838;DHT22;27511;52.042;5.178;2023-04-06T14:15:27;11.30;99.90
41838;DHT22;27511;52.042;5.178;2023-04-06T14:17:54;11.20;99.90
41838;DHT22;27511;52.042;5.178;2023-04-06T14:20:19;11.00;99.90
41838;DHT22;27511;52.042;5.178;2023-04-06T14:22:45;11.20;99.90
41838;DHT22;27511;52.042;5.178;2023-04-06T14:25:11;11.20;99.90
41838;DHT22;27511;52.042;5.178;2023-04-06T14:27:38;11.30;99.90
41838;DHT22;27511;52.042;5.178;2023-04-06T14:30:03;11.00;99.90
41838;DHT22;27511;52.042;5.178;2023-04-06T14:32:29;10.80;99.90
41838;DHT22;27511;52.042;5.178;2023-04-06T14:34:54;10.60;99.90
41838;DHT22;27511;52.042;5.178;2023-04-06T14:37:20;10.70;99.90
41838;DHT22;27511;52.042;5.178;2023-04-06T14:39:47;10.80;99.90
41838;DHT22;27511;52.042;5.178;2023-04-06T14:42:12;11.10;99.90
41838;DHT22;27511;52.042;5.178;2023-04-06T14:44:38;11.20;99.90
41838;DHT22;27511;52.042;5.178;2023-04-06T14:47:08;11.20;99.90
41838;DHT22;27511;52.042;5.178;2023-04-06T14:49:34;11.00;99.90
41838;DHT22;27511;52.042;5.178;2023-04-06T14:51:59;11.10;99.90
41838;DHT22;27511;52.042;5.178;2023-04-06T14:54:25;11.10;99.90
41838;DHT22;27511;52.042;5.178;2023-04-06T14:56:50;10.90;99.90
41838;DHT22;27511;52.042;5.178;2023-04-06T14:59:16;10.80;99.90
41838;DHT22;27511;52.042;5.178;2023-04-06T15:01:41;10.90;99.90
41838;DHT22;27511;52.042;5.178;2023-04-06T15:04:07;11.00;99.90
41838;DHT22;27511;52.042;5.178;2023-04-06T15:06:33;11.00;99.90
41838;DHT22;27511;52.042;5.178;2023-04-06T15:08:58;10.90;99.90
41838;DHT22;27511;52.042;5.178;2023-04-06T15:11:24;10.80;99.90
41838;DHT22;27511;52.042;5.178;2023-04-06T15:13:50;10.90;99.90
41838;DHT22;27511;52.042;5.178;2023-04-06T15:16:16;11.00;99.90
41838;DHT22;27511;52.042;5.178;2023-04-06T15:18:41;11.10;99.90
41838;DHT22;27511;52.042;5.178;2023-04-06T15:21:07;11.10;99.90
41838;DHT22;27511;52.042;5.178;2023-04-06T15:23:33;11.10;99.90
41838;DHT22;27511;52.042;5.178;2023-04-06T15:25:59;11.20;99.90
41838;DHT22;27511;52.042;5.178;2023-04-06T15:28:25;11.10;99.90
41838;DHT22;27511;52.042;5.178;2023-04-06T15:30:51;10.80;99.90
41838;DHT22;27511;52.042;5.178;2023-04-06T15:33:16;10.70;99.90
41838;DHT22;27511;52.042;5.178;2023-04-06T15:35:42;10.80;99.90
41838;DHT22;27511;52.042;5.178;2023-04-06T15:38:08;10.80;99.90